Time;durP1;ratioP1;P1;durP2;ratioP2;P2;SDS_P1;SDS_P2;PMS_P1;PMS_P2;Temp;Humidity;BMP_temperature;BMP_pressure;BME280_temperature;BME280_humidity;BME280_pressure;Samples;Min_cycle;Max_cycle;Signal;HPM_P1;HPM_P2
2023/05/20 00:01:49;;;;;;;6.75;5.00;;;;;;;15.19;100.00;99112.28;4485410;31;20100;-66
2023/05/20 00:04:16;;;;;;;10.23;5.43;;;;;;;15.10;100.00;99114.03;4485916;31;20116;-66
2023/05/20 00:06:44;;;;;;;7.43;5.68;;;;;;;15.09;100.00;99112.38;4485528;32;20131;-66
2023/05/20 00:09:11;;;;;;;7.70;4.78;;;;;;;15.15;100.00;99114.38;4485397;31;20155;-66
2023/05/20 00:11:39;;;;;;;8.98;5.82;;;;;;;15.06;100.00;99123.25;4485555;31;20115;-66
2023/05/20 00:14:06;;;;;;;12.00;5.40;;;;;;;15.07;100.00;99117.00;4500990;31;20143;-66
2023/05/20 00:16:33;;;;;;;7.47;5.43;;;;;;;15.01;100.00;99113.16;4487553;31;20120;-66
2023/05/20 00:19:01;;;;;;;11.32;5.43;;;;;;;14.97;100.00;99122.38;4485505;31;20151;-66
2023/05/20 00:21:28;;;;;;;7.53;5.82;;;;;;;14.90;100.00;99119.53;4485322;31;20149;-66
2023/05/20 00:23:55;;;;;;;7.25;5.47;;;;;;;14.87;100.00;99116.41;4485387;31;20096;-66
2023/05/20 00:26:23;;;;;;;9.32;6.97;;;;;;;14.86;100.00;99110.28;4485742;31;20093;-66
2023/05/20 00:28:51;;;;;;;9.25;5.75;;;;;;;14.95;100.00;99108.53;4485326;31;20211;-66
2023/05/20 00:31:18;;;;;;;9.65;5.93;;;;;;;14.96;100.00;99102.28;4485381;31;20115;-66
2023/05/20 00:33:45;;;;;;;7.32;5.75;;;;;;;14.97;100.00;99101.25;4485205;31;20096;-66
2023/05/20 00:36:13;;;;;;;10.85;5.93;;;;;;;15.00;100.00;99100.94;4484168;32;20123;-66
2023/05/20 00:38:40;;;;;;;10.43;6.10;;;;;;;14.96;100.00;99104.91;4484026;32;20528;-66
2023/05/20 00:41:07;;;;;;;9.02;5.43;;;;;;;14.90;100.00;99114.25;4483753;32;20705;-67
2023/05/20 00:43:34;;;;;;;9.80;6.93;;;;;;;14.89;100.00;99111.78;4485342;31;20096;-66
2023/05/20 00:46:02;;;;;;;10.45;6.65;;;;;;;14.89;100.00;99117.87;4485471;31;20157;-66
2023/05/20 00:48:40;;;;;;;12.73;6.45;;;;;;;14.86;100.00;99118.19;4485285;31;20114;-66
2023/05/20 00:51:09;;;;;;;9.48;6.35;;;;;;;14.84;100.00;99122.00;4484125;32;20100;-66
2023/05/20 00:53:36;;;;;;;12.43;6.47;;;;;;;14.81;100.00;99132.84;4485551;31;20486;-67
2023/05/20 00:56:04;;;;;;;11.00;6.82;;;;;;;14.79;100.00;99134.78;4485003;31;20092;-66
2023/05/20 00:58:31;;;;;;;12.35;6.62;;;;;;;14.72;100.00;99124.06;4485284;31;20445;-66
2023/05/20 01:00:58;;;;;;;8.55;6.43;;;;;;;14.68;100.00;99122.69;4484906;31;20167;-66
2023/05/20 01:03:26;;;;;;;14.57;6.18;;;;;;;14.65;100.00;99123.81;4485088;31;20450;-66
2023/05/20 01:05:53;;;;;;;9.95;6.22;;;;;;;14.61;100.00;99122.50;4484841;32;20130;-66
2023/05/20 01:08:22;;;;;;;13.98;5.87;;;;;;;14.55;100.00;99123.09;4485276;31;20163;-66
2023/05/20 01:10:57;;;;;;;9.30;6.00;;;;;;;14.51;100.00;99127.81;4484874;31;20453;-66
2023/05/20 01:13:30;;;;;;;11.45;6.65;;;;;;;14.47;100.00;99131.75;4483741;32;20139;-66
2023/05/20 01:15:59;;;;;;;15.93;5.82;;;;;;;14.42;100.00;99133.19;4483714;32;20096;-66
2023/05/20 01:18:29;;;;;;;11.40;5.97;;;;;;;14.43;100.00;99132.19;4483760;32;20104;-66
2023/05/20 01:21:00;;;;;;;7.87;5.40;;;;;;;14.40;100.00;99132.50;4484728;31;20080;-66
2023/05/20 01:23:45;;;;;;;9.80;5.53;;;;;;;14.39;100.00;99134.31;4483251;32;20115;-66
2023/05/20 01:26:13;;;;;;;11.05;6.22;;;;;;;14.43;100.00;99134.84;4484865;32;20084;-66
2023/05/20 01:28:43;;;;;;;11.98;6.57;;;;;;;14.47;100.00;99137.00;4485182;32;20157;-66
2023/05/20 01:31:18;;;;;;;9.07;6.15;;;;;;;14.48;100.00;99133.41;4484770;31;20096;-66
2023/05/20 01:33:50;;;;;;;12.35;6.82;;;;;;;14.62;100.00;99139.13;4483648;32;20092;-66
2023/05/20 01:36:18;;;;;;;12.30;6.90;;;;;;;14.63;100.00;99144.25;4484775;31;20097;-66
2023/05/20 01:38:46;;;;;;;9.50;5.93;;;;;;;14.67;100.00;99140.34;4483475;32;20160;-66
2023/05/20 01:41:14;;;;;;;8.43;5.43;;;;;;;14.76;100.00;99130.69;4483347;32;20135;-66
2023/05/20 01:43:42;;;;;;;11.10;6.35;;;;;;;14.76;100.00;99132.47;4483373;32;20123;-66
2023/05/20 01:46:09;;;;;;;9.57;6.10;;;;;;;14.82;100.00;99140.59;4483402;32;20429;-66
2023/05/20 01:48:37;;;;;;;9.10;6.93;;;;;;;14.90;100.00;99137.19;4484642;32;20148;-66
2023/05/20 01:51:04;;;;;;;10.65;6.53;;;;;;;14.94;100.00;99137.69;4484488;31;20506;-66
2023/05/20 01:53:31;;;;;;;9.00;6.00;;;;;;;14.88;100.00;99133.88;4484562;31;20826;-66
2023/05/20 01:55:58;;;;;;;14.13;6.53;;;;;;;14.88;100.00;99141.78;4484323;32;20092;-66
2023/05/20 01:58:25;;;;;;;10.65;6.12;;;;;;;14.91;100.00;99120.34;4484894;32;20108;-66
2023/05/20 02:00:53;;;;;;;11.00;6.25;;;;;;;14.87;100.00;99130.41;4484353;31;20132;-66
2023/05/20 02:03:20;;;;;;;15.38;6.78;;;;;;;14.85;100.00;99118.34;4484456;31;20120;-66
2023/05/20 02:05:47;;;;;;;10.68;6.30;;;;;;;14.81;100.00;99117.84;4484258;31;20164;-66
2023/05/20 02:08:14;;;;;;;10.38;6.47;;;;;;;14.83;100.00;99123.78;4484328;31;20092;-66
2023/05/20 02:10:43;;;;;;;11.35;6.10;;;;;;;14.77;100.00;99121.75;4484334;31;20080;-66
2023/05/20 02:13:11;;;;;;;10.30;5.87;;;;;;;14.72;100.00;99119.59;4484157;31;20516;-66
2023/05/20 02:15:41;;;;;;;11.05;7.10;;;;;;;14.72;100.00;99122.22;4492075;31;20109;-66
2023/05/20 02:18:11;;;;;;;10.77;6.12;;;;;;;14.69;100.00;99127.00;4499948;31;20115;-66
2023/05/20 02:20:38;;;;;;;12.82;6.43;;;;;;;14.63;100.00;99120.53;4499963;31;20120;-66
2023/05/20 02:23:07;;;;;;;7.35;5.70;;;;;;;14.61;100.00;99119.88;4499865;31;20135;-66
2023/05/20 02:25:35;;;;;;;7.68;6.10;;;;;;;14.64;100.00;99116.91;4499914;31;20099;-66
2023/05/20 02:28:04;;;;;;;11.48;6.45;;;;;;;14.57;100.00;99115.84;4500118;31;20100;-66
2023/05/20 02:30:32;;;;;;;9.38;6.15;;;;;;;14.57;100.00;99121.12;4500026;31;20144;-66
2023/05/20 02:32:59;;;;;;;9.43;6.10;;;;;;;14.61;100.00;99126.94;4499921;31;20107;-66
2023/05/20 02:35:26;;;;;;;12.55;6.72;;;;;;;14.61;100.00;99122.50;4500996;31;20088;-66
2023/05/20 02:37:54;;;;;;;9.93;5.87;;;;;;;14.57;100.00;99118.47;4502034;31;20091;-66
2023/05/20 02:40:21;;;;;;;10.82;6.22;;;;;;;14.55;100.00;99120.44;4501846;31;20099;-66
2023/05/20 02:42:48;;;;;;;7.85;5.50;;;;;;;14.57;100.00;99115.84;4501554;31;20180;-66
2023/05/20 02:45:16;;;;;;;11.93;6.75;;;;;;;14.50;100.00;99117.44;4502114;31;20921;-66
2023/05/20 02:47:44;;;;;;;7.68;5.57;;;;;;;14.48;100.00;99122.03;4502149;31;20109;-66
2023/05/20 02:50:11;;;;;;;11.38;5.90;;;;;;;14.43;100.00;99119.00;4502115;31;20160;-66
2023/05/20 02:52:41;;;;;;;13.82;5.65;;;;;;;14.40;100.00;99120.19;4501851;31;20115;-66
2023/05/20 02:55:08;;;;;;;10.88;5.68;;;;;;;14.38;100.00;99117.69;4502132;31;20153;-66
2023/05/20 02:57:39;;;;;;;8.10;5.50;;;;;;;14.40;100.00;99106.16;4501783;31;20095;-66
2023/05/20 03:00:11;;;;;;;11.73;6.50;;;;;;;14.41;100.00;99115.72;4500811;31;20423;-66
2023/05/20 03:02:39;;;;;;;14.07;5.87;;;;;;;14.34;100.00;99116.34;4501619;31;20079;-66
2023/05/20 03:05:07;;;;;;;9.02;5.72;;;;;;;14.34;100.00;99121.59;4501803;31;20092;-66
2023/05/20 03:07:36;;;;;;;8.25;6.00;;;;;;;14.32;100.00;99120.94;4501621;31;20092;-66
2023/05/20 03:10:05;;;;;;;12.55;6.05;;;;;;;14.33;100.00;99121.75;4500559;31;20092;-66
2023/05/20 03:12:33;;;;;;;9.98;6.03;;;;;;;14.27;100.00;99125.00;4495480;31;20155;-66
2023/05/20 03:15:00;;;;;;;7.97;5.87;;;;;;;14.26;100.00;99121.56;4489254;31;20544;-66
2023/05/20 03:17:27;;;;;;;10.70;5.82;;;;;;;14.25;100.00;99122.53;4501829;31;20117;-66
2023/05/20 03:19:56;;;;;;;9.95;5.85;;;;;;;14.22;100.00;99127.25;4501928;31;20144;-66
2023/05/20 03:22:23;;;;;;;9.13;5.62;;;;;;;14.25;100.00;99138.34;4501780;31;20099;-66
2023/05/20 03:24:51;;;;;;;12.25;5.72;;;;;;;14.20;100.00;99130.88;4501728;31;20156;-66
2023/05/20 03:27:20;;;;;;;10.38;6.37;;;;;;;14.20;100.00;99135.31;4501487;31;20084;-66
2023/05/20 03:29:47;;;;;;;9.02;5.78;;;;;;;14.21;100.00;99126.44;4501622;31;20596;-66
2023/05/20 03:32:16;;;;;;;9.55;5.68;;;;;;;14.22;100.00;99135.16;4501438;31;20438;-66
2023/05/20 03:34:43;;;;;;;10.05;6.18;;;;;;;14.25;100.00;99137.50;4501565;31;20157;-66
2023/05/20 03:37:11;;;;;;;11.35;5.47;;;;;;;14.23;100.00;99139.44;4501511;31;20084;-66
2023/05/20 03:39:38;;;;;;;9.40;5.20;;;;;;;14.28;100.00;99145.94;4501649;31;20511;-66
2023/05/20 03:42:05;;;;;;;7.47;5.43;;;;;;;14.29;100.00;99144.12;4501203;31;20104;-66
2023/05/20 03:44:34;;;;;;;10.52;5.90;;;;;;;14.29;100.00;99149.38;4501659;31;20151;-66
2023/05/20 03:47:01;;;;;;;10.38;5.55;;;;;;;14.27;100.00;99146.91;4501427;31;20116;-66
2023/05/20 03:49:29;;;;;;;8.73;5.80;;;;;;;14.32;100.00;99143.81;4501649;31;20088;-66
2023/05/20 03:51:56;;;;;;;10.18;5.70;;;;;;;14.32;100.00;99133.28;4501662;31;20173;-66
2023/05/20 03:54:23;;;;;;;11.95;5.72;;;;;;;14.35;100.00;99131.19;4501698;31;20148;-66
2023/05/20 03:56:52;;;;;;;9.25;5.62;;;;;;;14.33;100.00;99143.66;4501364;31;20092;-66
2023/05/20 03:59:21;;;;;;;9.82;5.70;;;;;;;14.33;100.00;99142.84;4501329;31;20465;-66
2023/05/20 04:01:48;;;;;;;11.85;5.07;;;;;;;14.33;100.00;99148.94;4501241;31;20433;-66
2023/05/20 04:04:15;;;;;;;8.88;5.28;;;;;;;14.45;100.00;99153.97;4501423;31;20163;-66
2023/05/20 04:06:42;;;;;;;10.38;6.85;;;;;;;14.51;100.00;99153.38;4501340;31;20134;-66
2023/05/20 04:09:10;;;;;;;7.75;5.18;;;;;;;14.50;100.00;99151.69;4501258;31;20431;-66
2023/05/20 04:11:37;;;;;;;8.57;5.22;;;;;;;14.57;100.00;99160.66;4501499;31;20167;-66
2023/05/20 04:14:04;;;;;;;7.57;4.80;;;;;;;14.58;100.00;99161.47;4485716;32;20112;-66
2023/05/20 04:16:32;;;;;;;9.52;5.03;;;;;;;14.64;100.00;99164.38;4498786;31;20489;-66
2023/05/20 04:19:01;;;;;;;8.30;5.28;;;;;;;14.57;100.00;99162.47;4501086;31;20171;-66
2023/05/20 04:21:28;;;;;;;6.22;4.90;;;;;;;14.69;100.00;99167.38;4501237;31;20088;-66
2023/05/20 04:23:56;;;;;;;9.13;5.37;;;;;;;14.73;100.00;99174.00;4501037;31;20100;-66
2023/05/20 04:26:23;;;;;;;9.27;5.05;;;;;;;14.80;100.00;99166.28;4501025;31;20137;-66
2023/05/20 04:28:50;;;;;;;8.35;5.53;;;;;;;14.87;100.00;99163.88;4501140;31;20087;-66
2023/05/20 04:31:20;;;;;;;8.10;4.20;;;;;;;14.93;100.00;99167.69;4501404;31;20164;-66
2023/05/20 04:33:48;;;;;;;14.93;5.65;;;;;;;14.92;100.00;99174.78;4500985;31;20103;-66
2023/05/20 04:36:15;;;;;;;9.48;5.30;;;;;;;14.93;100.00;99171.19;4501347;31;20092;-66
2023/05/20 04:38:43;;;;;;;8.93;5.05;;;;;;;14.98;100.00;99176.78;4500978;31;20100;-66
2023/05/20 04:41:11;;;;;;;10.07;5.15;;;;;;;15.08;100.00;99184.63;4501168;31;20096;-66
2023/05/20 04:43:39;;;;;;;8.65;5.70;;;;;;;15.10;100.00;99189.75;4500822;31;20149;-66
2023/05/20 04:46:07;;;;;;;7.20;4.68;;;;;;;15.26;100.00;99184.53;4500942;31;20096;-66
2023/05/20 04:48:35;;;;;;;9.98;5.32;;;;;;;15.18;100.00;99181.88;4501257;31;20122;-66
2023/05/20 04:51:02;;;;;;;9.05;5.25;;;;;;;15.17;100.00;99178.41;4500954;31;20092;-66
2023/05/20 04:53:30;;;;;;;8.77;5.50;;;;;;;15.30;100.00;99180.59;4500975;31;20468;-66
2023/05/20 04:56:00;;;;;;;8.88;5.25;;;;;;;15.43;100.00;99181.00;4500746;31;20616;-66
2023/05/20 04:58:30;;;;;;;32.35;5.72;;;;;;;15.45;100.00;99157.09;4500112;31;20441;-66
2023/05/20 05:00:58;;;;;;;7.25;5.03;;;;;;;15.38;100.00;99154.25;4501201;31;20096;-66
2023/05/20 05:03:25;;;;;;;9.30;5.25;;;;;;;15.47;100.00;99159.56;4500951;31;20100;-66
2023/05/20 05:05:56;;;;;;;6.80;5.40;;;;;;;15.52;100.00;99167.81;4501111;31;20099;-66
2023/05/20 05:08:27;;;;;;;11.63;5.97;;;;;;;15.47;100.00;99170.13;4500990;31;20084;-66
2023/05/20 05:10:54;;;;;;;8.05;4.90;;;;;;;15.53;100.00;99170.31;4500760;31;20163;-66
2023/05/20 05:13:22;;;;;;;8.70;5.20;;;;;;;15.57;100.00;99163.72;4489620;31;20104;-66
2023/05/20 05:15:57;;;;;;;9.02;5.28;;;;;;;15.54;100.00;99171.97;4493713;31;20118;-66
2023/05/20 05:18:25;;;;;;;9.75;5.97;;;;;;;15.48;100.00;99177.06;4501173;31;20529;-66
2023/05/20 05:21:03;;;;;;;8.00;4.53;;;;;;;15.65;100.00;99176.13;4501021;31;20139;-66
2023/05/20 05:23:31;;;;;;;10.48;5.37;;;;;;;15.93;100.00;99178.56;4501039;31;20112;-66
2023/05/20 05:25:58;;;;;;;9.10;5.07;;;;;;;15.96;100.00;99184.34;4500913;31;20100;-66
2023/05/20 05:28:26;;;;;;;10.93;5.40;;;;;;;16.09;100.00;99183.91;4500900;31;20118;-66
2023/05/20 05:30:55;;;;;;;8.60;5.20;;;;;;;15.99;100.00;99183.22;4500928;31;20396;-66
2023/05/20 05:33:23;;;;;;;7.28;5.35;;;;;;;16.23;100.00;99177.13;4500592;31;20168;-66
2023/05/20 05:35:50;;;;;;;8.48;5.53;;;;;;;16.30;100.00;99188.69;4500402;31;20122;-66
2023/05/20 05:38:18;;;;;;;34.83;7.12;;;;;;;16.42;100.00;99178.63;4500466;31;20113;-66
2023/05/20 05:40:45;;;;;;;10.80;5.45;;;;;;;16.41;100.00;99184.94;4500833;31;20092;-66
2023/05/20 05:43:12;;;;;;;10.82;5.32;;;;;;;16.52;100.00;99186.41;4500353;31;20080;-66
2023/05/20 05:45:41;;;;;;;7.60;5.03;;;;;;;16.73;100.00;99188.56;4500687;31;20104;-66
2023/05/20 05:48:09;;;;;;;7.25;4.87;;;;;;;16.99;100.00;99190.22;4500432;31;20075;-66
2023/05/20 05:50:36;;;;;;;8.15;5.37;;;;;;;17.03;100.00;99196.81;4500708;31;20103;-66
2023/05/20 05:53:07;;;;;;;10.80;5.82;;;;;;;17.03;100.00;99196.81;4500590;31;20490;-66
2023/05/20 05:55:35;;;;;;;7.32;5.03;;;;;;;16.98;100.00;99199.13;4500655;31;20506;-66
2023/05/20 05:58:02;;;;;;;14.95;5.62;;;;;;;16.89;100.00;99197.50;4500333;31;20091;-66
2023/05/20 06:00:30;;;;;;;7.65;4.97;;;;;;;16.93;100.00;99199.66;4500462;31;20100;-66
2023/05/20 06:02:57;;;;;;;9.07;5.10;;;;;;;17.12;100.00;99201.13;4500149;31;20579;-66
2023/05/20 06:05:25;;;;;;;8.27;5.35;;;;;;;16.95;100.00;99191.53;4500546;31;20106;-66
2023/05/20 06:07:55;;;;;;;8.15;5.43;;;;;;;16.92;100.00;99194.53;4500032;31;20133;-66
2023/05/20 06:10:23;;;;;;;7.43;4.87;;;;;;;17.02;100.00;99192.53;4502285;31;20728;-66
2023/05/20 06:12:50;;;;;;;19.67;5.50;;;;;;;17.11;100.00;99198.59;4494079;31;20100;-66
2023/05/20 06:15:17;;;;;;;9.15;6.25;;;;;;;17.19;100.00;99194.13;4491874;31;20118;-66
2023/05/20 06:17:46;;;;;;;9.20;5.93;;;;;;;17.17;100.00;99193.47;4502415;31;20127;-66
2023/05/20 06:20:14;;;;;;;9.55;5.78;;;;;;;17.26;100.00;99190.81;4502291;31;20119;-66
2023/05/20 06:22:42;;;;;;;9.45;5.62;;;;;;;17.29;100.00;99193.09;4502262;31;20190;-66
2023/05/20 06:25:11;;;;;;;8.75;5.43;;;;;;;17.45;100.00;99182.47;4502185;31;20095;-66
2023/05/20 06:27:39;;;;;;;10.38;4.95;;;;;;;17.66;100.00;99186.37;4502285;31;20494;-66
2023/05/20 06:30:08;;;;;;;8.73;5.80;;;;;;;17.64;100.00;99185.69;4502232;31;20099;-66
2023/05/20 06:32:35;;;;;;;10.13;5.78;;;;;;;17.70;100.00;99190.31;4502041;31;20697;-66
2023/05/20 06:35:02;;;;;;;9.40;5.80;;;;;;;17.93;100.00;99197.53;4502082;31;20123;-66
2023/05/20 06:37:30;;;;;;;8.80;5.37;;;;;;;17.92;100.00;99196.69;4502151;31;20499;-66
2023/05/20 06:39:57;;;;;;;10.40;5.70;;;;;;;17.78;100.00;99198.22;4501850;31;20122;-66
2023/05/20 06:42:25;;;;;;;9.23;5.85;;;;;;;17.80;100.00;99206.00;4502091;31;20084;-66
2023/05/20 06:44:57;;;;;;;10.02;5.40;;;;;;;17.89;100.00;99189.91;4501774;31;20113;-66
2023/05/20 06:47:28;;;;;;;9.55;6.03;;;;;;;17.96;100.00;99194.53;4501901;31;20084;-66
2023/05/20 06:49:55;;;;;;;11.82;5.32;;;;;;;17.90;100.00;99188.91;4501699;31;20096;-66
2023/05/20 06:52:22;;;;;;;9.35;5.87;;;;;;;18.06;100.00;99182.72;4501931;31;20164;-66
2023/05/20 06:54:50;;;;;;;9.77;5.28;;;;;;;18.22;100.00;99187.06;4502061;31;20113;-66
2023/05/20 06:57:18;;;;;;;9.73;6.50;;;;;;;18.22;100.00;99184.41;4502018;31;20167;-66
2023/05/20 06:59:45;;;;;;;9.85;6.12;;;;;;;18.29;100.00;99179.25;4501833;31;20119;-66
2023/05/20 07:02:13;;;;;;;13.00;5.82;;;;;;;18.27;100.00;99191.84;4502017;31;20141;-66
2023/05/20 07:04:40;;;;;;;7.47;5.05;;;;;;;18.48;100.00;99172.63;4502025;31;20450;-66
2023/05/20 07:07:07;;;;;;;11.65;5.62;;;;;;;18.50;100.00;99183.91;4501652;31;20134;-66
2023/05/20 07:09:35;;;;;;;10.23;5.55;;;;;;;18.71;100.00;99182.38;4501980;31;20096;-66
2023/05/20 07:12:04;;;;;;;7.70;5.65;;;;;;;18.74;100.00;99182.00;4498948;31;20137;-66
2023/05/20 07:14:31;;;;;;;9.23;6.00;;;;;;;18.66;100.00;99184.75;4485987;31;20091;-66
2023/05/20 07:16:59;;;;;;;9.10;5.45;;;;;;;18.84;100.00;99179.13;4501964;31;20091;-66
2023/05/20 07:19:27;;;;;;;8.15;5.72;;;;;;;18.92;100.00;99171.91;4498599;31;20092;-66
2023/05/20 07:21:54;;;;;;;19.12;6.20;;;;;;;19.04;100.00;99171.47;4488784;31;20382;-66
2023/05/20 07:24:22;;;;;;;9.38;6.03;;;;;;;18.93;100.00;99155.00;4485744;31;20130;-66
2023/05/20 07:26:49;;;;;;;9.80;5.55;;;;;;;18.82;100.00;99170.50;4486109;32;20111;-66
2023/05/20 07:29:16;;;;;;;11.60;6.12;;;;;;;18.82;100.00;99163.37;4486164;31;20165;-67
2023/05/20 07:31:44;;;;;;;9.88;5.25;;;;;;;18.94;100.00;99161.09;4486212;32;20088;-66
2023/05/20 07:34:11;;;;;;;10.27;5.85;;;;;;;19.10;100.00;99171.56;4485769;32;20110;-66
2023/05/20 07:36:39;;;;;;;8.10;5.50;;;;;;;19.14;100.00;99169.38;4485869;31;20114;-66
2023/05/20 07:39:07;;;;;;;8.50;5.75;;;;;;;19.03;99.21;99169.81;4485764;32;20662;-66
2023/05/20 07:41:40;;;;;;;;;;;;;;;19.04;98.11;99168.81;4486449;31;20430;-66
2023/05/20 07:44:10;;;;;;;8.82;5.22;;;;;;;19.30;95.59;99168.38;4485781;31;20039;-66
2023/05/20 07:46:39;;;;;;;8.00;5.70;;;;;;;19.26;96.06;99167.91;4485885;32;20127;-66
2023/05/20 07:49:07;;;;;;;9.85;6.05;;;;;;;19.25;96.40;99176.88;4485714;31;20519;-66
2023/05/20 07:51:35;;;;;;;12.10;5.95;;;;;;;19.21;97.13;99172.13;4485997;31;20533;-66
2023/05/20 07:54:02;;;;;;;10.77;6.15;;;;;;;19.32;98.91;99163.72;4486100;31;20092;-66
2023/05/20 07:56:29;;;;;;;8.10;5.75;;;;;;;19.49;95.20;99165.16;4485376;31;20110;-66
2023/05/20 07:58:58;;;;;;;10.15;6.03;;;;;;;19.75;96.07;99157.69;4485627;31;20104;-66
2023/05/20 08:01:28;;;;;;;14.32;6.03;;;;;;;19.85;94.49;99153.75;4484196;32;20533;-66
2023/05/20 08:03:55;;;;;;;13.80;5.97;;;;;;;19.89;91.50;99143.56;4485750;31;20084;-66
2023/05/20 08:06:23;;;;;;;7.75;5.72;;;;;;;19.76;91.09;99148.72;4485661;31;20100;-66
2023/05/20 08:08:53;;;;;;;10.73;5.87;;;;;;;19.77;92.97;99150.34;4484509;32;20150;-66
2023/05/20 08:11:21;;;;;;;10.43;5.40;;;;;;;19.96;91.50;99147.09;4485741;31;20096;-66
2023/05/20 08:13:48;;;;;;;8.23;5.18;;;;;;;20.12;90.14;99153.19;4485308;31;20096;-66
2023/05/20 08:16:16;;;;;;;10.18;5.68;;;;;;;20.09;90.80;99153.56;4497352;31;20171;-66
2023/05/20 08:18:44;;;;;;;10.95;6.12;;;;;;;20.27;92.77;99150.47;4501608;31;20140;-66
2023/05/20 08:21:12;;;;;;;9.93;6.10;;;;;;;20.15;90.54;99156.31;4501462;31;20096;-66
2023/05/20 08:23:40;;;;;;;12.98;5.75;;;;;;;20.12;90.40;99151.38;4501200;31;20091;-66
2023/05/20 08:26:07;;;;;;;8.48;5.72;;;;;;;20.19;86.46;99154.09;4501078;31;20171;-66
2023/05/20 08:28:36;;;;;;;9.27;5.78;;;;;;;20.15;88.13;99152.81;4501400;31;20088;-66
2023/05/20 08:31:04;;;;;;;7.47;5.25;;;;;;;20.48;87.71;99146.97;4501114;31;20103;-66
2023/05/20 08:33:32;;;;;;;10.27;5.50;;;;;;;20.35;85.30;99143.19;4499941;31;20127;-66
2023/05/20 08:35:59;;;;;;;9.75;5.37;;;;;;;20.34;85.00;99138.06;4500954;31;20091;-66
2023/05/20 08:38:27;;;;;;;9.88;5.72;;;;;;;20.23;87.16;99139.41;4501246;31;20119;-66
2023/05/20 08:40:56;;;;;;;12.43;6.22;;;;;;;20.25;84.50;99132.03;4501266;31;20108;-66
2023/05/20 08:43:24;;;;;;;8.13;5.78;;;;;;;20.33;88.35;99137.25;4501043;31;20114;-66
2023/05/20 08:45:51;;;;;;;8.85;6.28;;;;;;;20.59;88.13;99137.63;4501123;31;20104;-68
2023/05/20 08:48:22;;;;;;;9.52;5.37;;;;;;;20.69;87.80;99138.16;4501330;31;20119;-67
2023/05/20 08:50:50;;;;;;;16.10;6.18;;;;;;;20.87;86.22;99127.84;4501190;31;20084;-66
2023/05/20 08:53:19;;;;;;;9.60;6.03;;;;;;;20.82;84.90;99135.59;4500822;31;20117;-67
2023/05/20 08:55:52;;;;;;;8.18;5.65;;;;;;;21.04;84.36;99131.00;4499783;31;20164;-67
2023/05/20 08:58:20;;;;;;;15.85;6.25;;;;;;;21.21;85.48;99131.53;4501067;31;20088;-67
2023/05/20 09:00:48;;;;;;;7.90;5.87;;;;;;;21.32;82.83;99131.97;4499685;31;20481;-66
2023/05/20 09:03:16;;;;;;;15.73;5.53;;;;;;;21.21;84.66;99133.34;4501024;31;20100;-66
2023/05/20 09:05:43;;;;;;;13.15;6.87;;;;;;;21.14;83.21;99125.34;4501273;31;20088;-67
2023/05/20 09:08:11;;;;;;;24.48;6.78;;;;;;;21.34;82.44;99128.09;4500888;31;20096;-66
2023/05/20 09:10:40;;;;;;;10.02;6.00;;;;;;;21.62;81.39;99129.91;4500991;31;20159;-66
2023/05/20 09:13:08;;;;;;;10.85;6.12;;;;;;;21.46;77.63;99131.03;4491108;31;20104;-66
2023/05/20 09:15:36;;;;;;;11.00;5.97;;;;;;;21.27;78.80;99120.09;4492325;31;20147;-66
2023/05/20 09:18:06;;;;;;;9.13;6.40;;;;;;;21.00;76.81;99134.25;4500601;31;20104;-67
2023/05/20 09:20:39;;;;;;;28.50;6.53;;;;;;;21.11;77.99;99130.25;4500647;31;20100;-66
2023/05/20 09:23:08;;;;;;;;;;;;;;;21.13;77.53;99120.22;4501204;31;20147;-66
2023/05/20 09:25:36;;;;;;;12.07;6.00;;;;;;;21.30;80.18;99118.03;4500884;31;19988;-67
2023/05/20 09:28:06;;;;;;;10.70;5.10;;;;;;;21.48;80.86;99118.31;4500616;31;20480;-66
2023/05/20 09:30:33;;;;;;;14.85;6.12;;;;;;;21.59;75.62;99122.25;4500754;31;20167;-66
2023/05/20 09:33:03;;;;;;;7.12;5.37;;;;;;;21.59;75.72;99114.25;4500787;31;20174;-66
2023/05/20 09:35:36;;;;;;;13.85;6.47;;;;;;;21.55;76.03;99119.19;4500755;31;20160;-66
2023/05/20 09:38:05;;;;;;;9.82;6.05;;;;;;;21.66;75.19;99114.31;4500862;31;20084;-66
2023/05/20 09:40:32;;;;;;;8.52;6.03;;;;;;;21.66;75.46;99100.97;4500669;31;20088;-67
2023/05/20 09:43:02;;;;;;;12.18;6.22;;;;;;;21.77;77.05;99097.72;4500157;31;20477;-67
2023/05/20 09:45:30;;;;;;;9.52;5.57;;;;;;;21.92;75.55;99095.72;4500512;31;20088;-66
2023/05/20 09:47:58;;;;;;;21.27;6.65;;;;;;;22.09;73.12;99101.47;4500427;31;20164;-67
2023/05/20 09:50:27;;;;;;;8.57;5.95;;;;;;;21.93;75.07;99096.53;4500461;31;20122;-66
2023/05/20 09:52:55;;;;;;;9.73;6.00;;;;;;;21.84;73.62;99093.22;4500376;31;20121;-66
2023/05/20 09:55:23;;;;;;;9.43;6.43;;;;;;;22.07;78.50;99087.50;4500385;31;20128;-66
2023/05/20 09:57:50;;;;;;;13.18;6.57;;;;;;;22.37;78.21;99087.13;4500078;31;20088;-66
2023/05/20 10:00:18;;;;;;;13.07;6.50;;;;;;;22.37;73.81;99089.78;4500319;31;20152;-66
2023/05/20 10:02:50;;;;;;;12.32;6.00;;;;;;;22.46;75.18;99079.75;4500180;31;20162;-67
2023/05/20 10:05:31;;;;;;;16.90;6.00;;;;;;;22.40;70.74;99080.56;4500375;31;20076;-66
2023/05/20 10:08:27;;;;;;;10.32;5.82;;;;;;;22.68;69.17;99077.66;4499939;31;20144;-67
2023/05/20 10:11:13;;;;;;;;;;;;;;;22.72;67.24;99083.41;4499137;31;20554;-67
2023/05/20 10:13:48;;;;;;;13.85;5.95;;;;;;;22.81;68.72;99076.81;4486639;31;20016;-67
2023/05/20 10:16:37;;;;;;;12.25;5.35;;;;;;;22.87;68.08;99070.63;4483023;32;20115;-67
2023/05/20 10:19:14;;;;;;;10.63;5.70;;;;;;;22.98;63.95;99078.00;4484317;31;20092;-66
2023/05/20 10:21:41;;;;;;;9.10;5.50;;;;;;;23.10;66.70;99072.03;4484376;31;20085;-66
2023/05/20 10:24:10;;;;;;;11.63;6.87;;;;;;;23.21;65.45;99058.81;4482766;32;20118;-66
2023/05/20 10:26:39;;;;;;;15.60;5.68;;;;;;;22.95;63.98;99062.41;4484296;31;20079;-67
2023/05/20 10:29:17;;;;;;;10.75;5.65;;;;;;;23.14;65.83;99060.69;4484127;32;20125;-66
2023/05/20 10:31:49;;;;;;;9.88;5.85;;;;;;;23.20;61.04;99062.50;4484200;31;20093;-67
2023/05/20 10:34:21;;;;;;;9.07;6.12;;;;;;;23.23;66.04;99063.94;4483955;32;20100;-67
2023/05/20 10:36:54;;;;;;;7.62;5.20;;;;;;;23.16;58.79;99063.16;4484289;31;20080;-67
2023/05/20 10:39:28;;;;;;;10.88;6.05;;;;;;;23.14;58.31;99055.34;4483988;31;20081;-66
2023/05/20 10:42:08;;;;;;;9.40;5.50;;;;;;;23.39;59.47;99039.41;4484076;31;20110;-67
2023/05/20 10:44:54;;;;;;;8.35;5.45;;;;;;;23.59;62.09;99051.00;4483875;31;20155;-66
2023/05/20 10:47:21;;;;;;;11.18;6.05;;;;;;;23.71;60.47;99050.13;4482708;32;20085;-67
2023/05/20 10:49:52;;;;;;;8.63;5.70;;;;;;;23.65;56.34;99045.63;4483967;31;20088;-67
2023/05/20 10:52:19;;;;;;;7.30;4.95;;;;;;;23.61;55.58;99040.94;4483719;31;20095;-67
2023/05/20 10:54:53;;;;;;;12.57;7.45;;;;;;;23.67;52.65;99040.06;4484026;32;20215;-67
2023/05/20 10:57:21;;;;;;;8.00;5.20;;;;;;;23.96;52.12;99038.66;4485684;32;20164;-67
2023/05/20 10:59:50;;;;;;;6.80;5.32;;;;;;;23.89;50.82;99049.41;4486078;32;20406;-66
2023/05/20 11:02:18;;;;;;;8.07;5.82;;;;;;;23.70;50.45;99047.66;4486113;31;20131;-67
2023/05/20 11:04:46;;;;;;;9.38;5.10;;;;;;;23.83;49.59;99047.56;4485934;31;20099;-67
2023/05/20 11:07:27;;;;;;;9.95;5.25;;;;;;;23.90;49.89;99043.00;4485969;32;20419;-67
2023/05/20 11:09:55;;;;;;;7.78;5.50;;;;;;;23.88;52.77;99034.38;4485947;31;20161;-67
2023/05/20 11:12:24;;;;;;;6.80;4.95;;;;;;;24.07;50.49;99037.12;4491049;31;20137;-67
2023/05/20 11:14:52;;;;;;;7.82;4.97;;;;;;;23.84;51.21;99029.66;4498867;31;20157;-66
2023/05/20 11:17:19;;;;;;;11.32;5.12;;;;;;;24.08;49.17;99036.09;4486091;31;20092;-67
2023/05/20 11:19:47;;;;;;;7.65;5.28;;;;;;;24.06;50.24;99030.97;4485718;32;20522;-67
2023/05/20 11:22:14;;;;;;;9.70;5.00;;;;;;;24.33;52.15;99037.94;4485821;31;20111;-67
2023/05/20 11:24:41;;;;;;;13.40;6.87;;;;;;;24.43;50.61;99027.53;4485567;32;20100;-67
2023/05/20 11:27:09;;;;;;;9.55;5.72;;;;;;;24.56;50.25;99023.91;4486152;31;20100;-67
2023/05/20 11:29:36;;;;;;;7.53;5.37;;;;;;;24.52;50.77;99020.84;4485774;31;20101;-67
2023/05/20 11:32:04;;;;;;;9.38;5.45;;;;;;;24.38;48.00;99022.03;4485698;31;20114;-67